Time;durP1;ratioP1;P1;durP2;ratioP2;P2;SDS_P1;SDS_P2;PMS_P1;PMS_P2;Temp;Humidity;BMP_temperature;BMP_pressure;BME280_temperature;BME280_humidity;BME280_pressure;Samples;Min_cycle;Max_cycle;Signal;HPM_P1;HPM_P2
2021/05/31 00:02:08;;;;;;;9.23;5.15;;;11.80;99.90;;;;;;5137481;27;20197;-64
2021/05/31 00:04:34;;;;;;;17.33;5.13;;;11.80;99.90;;;;;;5135545;27;20628;-65
2021/05/31 00:07:02;;;;;;;13.05;5.07;;;11.80;99.90;;;;;;5135212;27;20188;-64
2021/05/31 00:09:28;;;;;;;8.35;4.50;;;11.70;99.90;;;;;;5135170;27;20167;-63
2021/05/31 00:11:54;;;;;;;10.90;5.32;;;11.70;99.90;;;;;;5134902;27;20168;-63
2021/05/31 00:14:20;;;;;;;19.85;5.80;;;11.70;99.90;;;;;;5137252;27;20526;-64
2021/05/31 00:16:46;;;;;;;13.13;5.93;;;11.60;99.90;;;;;;5141154;27;20180;-63
2021/05/31 00:19:14;;;;;;;15.30;5.53;;;11.60;99.90;;;;;;5117135;27;20172;-64
2021/05/31 00:21:40;;;;;;;12.80;4.97;;;11.60;99.90;;;;;;5136006;27;20678;-65
2021/05/31 00:24:06;;;;;;;11.02;5.35;;;11.50;99.90;;;;;;5134980;27;20176;-65
2021/05/31 00:26:32;;;;;;;10.90;5.15;;;11.50;99.90;;;;;;5134195;27;20191;-65
2021/05/31 00:28:59;;;;;;;10.38;5.15;;;11.50;99.90;;;;;;5141567;27;20543;-64
2021/05/31 00:31:25;;;;;;;11.30;5.43;;;11.40;99.90;;;;;;5133984;27;20171;-64
2021/05/31 00:33:51;;;;;;;12.73;5.43;;;11.40;99.90;;;;;;5134198;27;20186;-63
2021/05/31 00:36:17;;;;;;;10.95;5.28;;;11.40;99.90;;;;;;5134416;27;20168;-64
2021/05/31 00:38:43;;;;;;;13.05;5.43;;;11.40;99.90;;;;;;5116708;27;20184;-65
2021/05/31 00:41:09;;;;;;;11.65;6.20;;;11.40;99.90;;;;;;5138051;27;20215;-64
2021/05/31 00:43:35;;;;;;;8.88;5.60;;;11.40;99.90;;;;;;5134169;27;20180;-64
2021/05/31 00:46:02;;;;;;;15.30;7.00;;;11.40;99.90;;;;;;5134547;27;20553;-65
2021/05/31 00:48:28;;;;;;;11.13;5.70;;;11.40;99.90;;;;;;5134460;27;20176;-64
2021/05/31 00:50:55;;;;;;;10.13;5.05;;;11.30;99.90;;;;;;5133749;27;20192;-64
2021/05/31 00:53:21;;;;;;;16.42;5.28;;;11.30;99.90;;;;;;5134332;27;20678;-65
2021/05/31 00:55:48;;;;;;;10.23;5.35;;;11.30;99.90;;;;;;5134092;27;20199;-64
2021/05/31 00:58:14;;;;;;;12.82;5.68;;;11.30;99.90;;;;;;5134644;27;20535;-64
2021/05/31 01:00:40;;;;;;;13.85;4.88;;;11.30;99.90;;;;;;5132502;27;20214;-64
2021/05/31 01:03:06;;;;;;;10.20;5.30;;;11.30;99.90;;;;;;5132992;27;20180;-64
2021/05/31 01:05:32;;;;;;;9.93;5.35;;;11.30;99.90;;;;;;5133563;27;20172;-64
2021/05/31 01:08:00;;;;;;;12.18;5.70;;;11.30;99.90;;;;;;5133711;27;20249;-64
2021/05/31 01:10:44;;;;;;;13.15;6.10;;;11.30;99.90;;;;;;5134532;27;20293;-64
2021/05/31 01:13:28;;;;;;;17.75;5.55;;;11.30;99.90;;;;;;5115756;27;20526;-64
2021/05/31 01:16:02;;;;;;;11.18;5.47;;;11.30;99.90;;;;;;5113157;27;20164;-64
2021/05/31 01:18:31;;;;;;;13.15;6.10;;;11.30;99.90;;;;;;5104520;27;20162;-64
2021/05/31 01:21:33;;;;;;;11.75;5.03;;;11.30;99.90;;;;;;5133853;27;20588;-64
2021/05/31 01:24:22;;;;;;;12.80;4.90;;;11.20;99.90;;;;;;5111595;27;20187;-64
2021/05/31 01:26:53;;;;;;;9.00;5.25;;;11.10;99.90;;;;;;5117902;27;20604;-64
2021/05/31 01:29:25;;;;;;;11.57;4.78;;;11.10;99.90;;;;;;5116280;27;20161;-64
2021/05/31 01:31:56;;;;;;;8.05;4.85;;;11.10;99.90;;;;;;5133511;27;20183;-64
2021/05/31 01:34:24;;;;;;;15.95;5.25;;;11.00;99.90;;;;;;5133385;27;20216;-64
2021/05/31 01:36:53;;;;;;;8.82;5.57;;;11.00;99.90;;;;;;5101605;27;20179;-65
2021/05/31 01:39:21;;;;;;;14.70;5.60;;;10.90;99.90;;;;;;5116105;27;20176;-65
2021/05/31 01:41:48;;;;;;;12.43;6.82;;;10.80;99.90;;;;;;5097066;27;20211;-65
2021/05/31 01:44:14;;;;;;;13.60;6.72;;;10.70;99.90;;;;;;5133409;27;20179;-65
2021/05/31 01:46:40;;;;;;;11.32;5.90;;;10.70;99.90;;;;;;5115203;27;20535;-64
2021/05/31 01:49:07;;;;;;;11.10;5.82;;;10.70;99.90;;;;;;5109667;27;20173;-64
2021/05/31 01:51:34;;;;;;;16.77;6.18;;;10.60;99.90;;;;;;5104110;27;20171;-64
2021/05/31 01:54:00;;;;;;;12.60;7.25;;;10.60;99.90;;;;;;5112467;27;20178;-64
2021/05/31 01:56:27;;;;;;;13.77;7.80;;;10.60;99.90;;;;;;5114433;27;20198;-64
2021/05/31 01:58:53;;;;;;;11.07;5.72;;;10.60;99.90;;;;;;5132819;27;20180;-65
2021/05/31 02:01:19;;;;;;;12.82;7.28;;;10.60;99.90;;;;;;5097550;27;20204;-65
2021/05/31 02:03:45;;;;;;;14.75;7.88;;;10.60;99.90;;;;;;5110256;27;20191;-64
2021/05/31 02:06:11;;;;;;;16.88;8.45;;;10.60;99.90;;;;;;5115065;27;20168;-64
2021/05/31 02:08:37;;;;;;;14.60;8.23;;;10.60;99.90;;;;;;5133222;27;20237;-64
2021/05/31 02:11:15;;;;;;;13.70;7.03;;;10.60;99.90;;;;;;5128352;27;20563;-64
2021/05/31 02:13:41;;;;;;;15.50;6.10;;;10.60;99.90;;;;;;5132605;27;20587;-65
2021/05/31 02:16:20;;;;;;;12.55;5.97;;;10.60;99.90;;;;;;5107848;27;20184;-64
2021/05/31 02:18:50;;;;;;;13.20;6.35;;;10.60;99.90;;;;;;5102294;28;20172;-64
2021/05/31 02:21:17;;;;;;;14.10;6.22;;;10.60;99.90;;;;;;5114026;27;20660;-64
2021/05/31 02:23:43;;;;;;;14.80;6.93;;;10.60;99.90;;;;;;5132725;27;20176;-63
2021/05/31 02:26:12;;;;;;;18.08;6.88;;;10.60;99.90;;;;;;5133187;27;20524;-63
2021/05/31 02:28:38;;;;;;;14.48;6.75;;;10.60;99.90;;;;;;5125787;27;20187;-64
2021/05/31 02:31:06;;;;;;;19.48;7.45;;;10.60;99.90;;;;;;5132965;27;20183;-64
2021/05/31 02:33:33;;;;;;;17.38;6.65;;;10.60;99.90;;;;;;5113434;27;20191;-64
2021/05/31 02:35:59;;;;;;;12.25;7.15;;;10.60;99.90;;;;;;5132708;27;20223;-64
2021/05/31 02:38:25;;;;;;;20.77;6.78;;;10.60;99.90;;;;;;5115550;27;20183;-64
2021/05/31 02:40:51;;;;;;;14.80;6.97;;;10.60;99.90;;;;;;5132642;27;20679;-63
2021/05/31 02:43:17;;;;;;;14.10;6.60;;;10.60;99.90;;;;;;5113765;27;20191;-64
2021/05/31 02:45:43;;;;;;;15.45;7.03;;;10.60;99.90;;;;;;5113676;28;20180;-65
2021/05/31 02:48:09;;;;;;;12.40;6.65;;;10.50;99.90;;;;;;5132536;27;20176;-64
2021/05/31 02:50:35;;;;;;;17.02;6.72;;;10.50;99.90;;;;;;5131926;27;20624;-64
2021/05/31 02:53:02;;;;;;;13.55;6.07;;;10.50;99.90;;;;;;5132474;27;20187;-64
2021/05/31 02:55:29;;;;;;;18.02;6.90;;;10.50;99.90;;;;;;5110544;28;20550;-64
2021/05/31 02:57:55;;;;;;;15.55;6.93;;;10.50;99.90;;;;;;5095979;28;20200;-65
2021/05/31 03:00:23;;;;;;;13.90;6.70;;;10.50;99.90;;;;;;5131952;27;20176;-65
2021/05/31 03:02:49;;;;;;;14.77;8.77;;;10.50;99.90;;;;;;5132583;28;20184;-64
2021/05/31 03:05:21;;;;;;;13.25;6.40;;;10.50;99.90;;;;;;5134698;27;20180;-65
2021/05/31 03:07:47;;;;;;;12.38;6.53;;;10.50;99.90;;;;;;5132503;27;20497;-65
2021/05/31 03:10:14;;;;;;;16.80;6.53;;;10.50;99.90;;;;;;5132733;27;20176;-64
2021/05/31 03:12:40;;;;;;;12.75;6.32;;;10.50;99.90;;;;;;5113356;28;20631;-63
2021/05/31 03:15:07;;;;;;;14.85;6.43;;;10.50;99.90;;;;;;5130360;27;20539;-64
2021/05/31 03:17:34;;;;;;;14.00;6.57;;;10.50;99.90;;;;;;5133879;27;20164;-63
2021/05/31 03:20:00;;;;;;;16.55;8.80;;;10.50;99.90;;;;;;5127897;28;20199;-64
2021/05/31 03:22:26;;;;;;;17.30;6.45;;;10.60;99.90;;;;;;5112502;28;20206;-64
2021/05/31 03:24:52;;;;;;;11.88;6.93;;;10.70;99.90;;;;;;5113695;28;20168;-64
2021/05/31 03:27:18;;;;;;;14.20;6.43;;;10.70;99.90;;;;;;5136770;27;20179;-64
2021/05/31 03:29:44;;;;;;;13.27;6.47;;;10.70;99.90;;;;;;5113698;27;20179;-64
2021/05/31 03:32:10;;;;;;;12.65;6.95;;;10.80;99.90;;;;;;5135789;27;20195;-64
2021/05/31 03:34:36;;;;;;;14.48;7.13;;;10.80;99.90;;;;;;5137827;27;20218;-64
2021/05/31 03:37:03;;;;;;;15.90;6.55;;;10.80;99.90;;;;;;5136612;27;20180;-64
2021/05/31 03:39:29;;;;;;;13.30;6.90;;;10.90;99.90;;;;;;5135634;27;20164;-64
2021/05/31 03:41:55;;;;;;;14.32;6.63;;;10.90;99.90;;;;;;5137534;27;20199;-63
2021/05/31 03:44:21;;;;;;;11.18;6.53;;;11.00;99.90;;;;;;5134981;27;20562;-64
2021/05/31 03:46:47;;;;;;;13.70;6.75;;;11.00;99.90;;;;;;5135969;27;20184;-64
2021/05/31 03:49:14;;;;;;;13.68;7.13;;;11.10;99.90;;;;;;5139931;27;20541;-65
2021/05/31 03:51:40;;;;;;;14.48;7.47;;;11.10;99.90;;;;;;5136718;27;20175;-64
2021/05/31 03:54:06;;;;;;;13.13;7.00;;;11.20;99.90;;;;;;5115241;27;20180;-64
2021/05/31 03:56:32;;;;;;;13.27;6.50;;;11.20;99.90;;;;;;5135374;27;20237;-64
2021/05/31 03:58:58;;;;;;;21.35;7.32;;;11.30;99.90;;;;;;5134581;27;20172;-64
2021/05/31 04:01:24;;;;;;;17.20;7.40;;;11.30;99.90;;;;;;5137106;27;20202;-64
2021/05/31 04:03:51;;;;;;;12.77;6.93;;;11.40;99.90;;;;;;5123980;27;20175;-64
2021/05/31 04:11:49;;;;;;;15.07;7.43;;;11.40;99.90;;;;;;5141715;27;20171;-64
2021/05/31 04:14:16;;;;;;;13.18;7.22;;;11.50;99.90;;;;;;5142085;27;20184;-64
2021/05/31 04:16:43;;;;;;;12.60;7.45;;;11.50;99.90;;;;;;5097538;28;20177;-64
2021/05/31 04:19:10;;;;;;;16.63;7.45;;;11.60;99.90;;;;;;5114372;28;20179;-64
2021/05/31 04:21:36;;;;;;;16.15;7.30;;;11.70;99.90;;;;;;5115520;27;20204;-64
2021/05/31 04:24:03;;;;;;;17.23;7.57;;;11.70;99.90;;;;;;5099087;27;20172;-64
2021/05/31 04:26:30;;;;;;;16.98;7.63;;;11.80;99.90;;;;;;5117186;27;20172;-64
2021/05/31 04:28:56;;;;;;;22.92;8.60;;;11.90;99.90;;;;;;5135302;27;20179;-65
2021/05/31 04:31:23;;;;;;;22.33;8.90;;;12.00;99.90;;;;;;5134985;27;20175;-64
2021/05/31 04:33:49;;;;;;;15.43;8.07;;;12.10;99.90;;;;;;5134548;27;20206;-65
2021/05/31 04:36:15;;;;;;;17.42;8.50;;;12.20;99.90;;;;;;5135319;27;20168;-65
2021/05/31 04:38:42;;;;;;;19.95;8.75;;;12.20;99.90;;;;;;5131783;27;20662;-65
2021/05/31 04:41:08;;;;;;;21.90;9.45;;;12.30;99.90;;;;;;5134999;27;20211;-65
2021/05/31 04:43:35;;;;;;;21.98;9.52;;;12.40;99.90;;;;;;5138216;27;20659;-65
2021/05/31 04:46:02;;;;;;;20.60;9.43;;;12.40;99.90;;;;;;5156339;27;20190;-65
2021/05/31 04:48:28;;;;;;;15.88;8.38;;;12.50;99.90;;;;;;5156681;27;20165;-65
2021/05/31 04:50:57;;;;;;;38.28;8.70;;;12.60;99.90;;;;;;5155830;27;20531;-64
2021/05/31 04:53:26;;;;;;;29.67;8.95;;;12.70;99.90;;;;;;5156253;27;20654;-65
2021/05/31 04:55:53;;;;;;;24.90;9.02;;;12.80;99.90;;;;;;5156187;27;20187;-64
2021/05/31 04:58:20;;;;;;;22.08;8.80;;;12.90;99.90;;;;;;5143699;27;20182;-64
2021/05/31 05:00:46;;;;;;;16.33;9.32;;;13.00;99.90;;;;;;5143468;27;20176;-64
2021/05/31 05:03:12;;;;;;;20.08;8.70;;;13.10;99.90;;;;;;5141491;27;20184;-64
2021/05/31 05:05:39;;;;;;;17.33;7.95;;;13.30;99.90;;;;;;5135412;27;20172;-65
2021/05/31 05:08:05;;;;;;;19.35;7.68;;;13.60;99.90;;;;;;5134639;27;20190;-65
2021/05/31 05:10:31;;;;;;;16.38;7.85;;;13.70;99.90;;;;;;5135745;27;20180;-67
2021/05/31 05:12:57;;;;;;;20.15;8.45;;;13.80;99.90;;;;;;5136242;27;20172;-64
2021/05/31 05:15:26;;;;;;;15.35;7.90;;;13.90;99.90;;;;;;5132342;27;20176;-65
2021/05/31 05:17:52;;;;;;;10.98;7.30;;;14.00;99.90;;;;;;5148923;27;20171;-65
2021/05/31 05:20:20;;;;;;;16.42;7.72;;;14.10;99.90;;;;;;5125822;27;20513;-64
2021/05/31 05:22:46;;;;;;;16.02;8.25;;;14.20;99.90;;;;;;5145194;27;20195;-63
2021/05/31 05:25:13;;;;;;;13.65;7.82;;;14.20;99.90;;;;;;5142938;27;20637;-64
2021/05/31 05:27:41;;;;;;;13.18;6.97;;;14.30;99.90;;;;;;5133014;27;20192;-65
2021/05/31 05:30:08;;;;;;;60.63;7.68;;;14.30;99.90;;;;;;5133985;27;20181;-65
2021/05/31 05:32:36;;;;;;;17.45;6.75;;;14.50;99.90;;;;;;5115060;27;20176;-65
2021/05/31 05:35:18;;;;;;;10.20;6.75;;;14.50;99.90;;;;;;5132171;27;20207;-65
2021/05/31 05:48:23;;;;;;;11.68;6.72;;;14.70;99.90;;;;;;5126295;27;20168;-65
2021/05/31 05:50:49;;;;;;;10.95;6.57;;;14.80;99.90;;;;;;5137902;27;20167;-64
2021/05/31 05:53:15;;;;;;;10.40;5.57;;;14.90;99.90;;;;;;5135833;27;20183;-65
2021/05/31 05:55:41;;;;;;;10.07;5.78;;;14.90;99.90;;;;;;5136282;27;20188;-64
2021/05/31 05:58:07;;;;;;;12.75;5.75;;;14.90;99.90;;;;;;5137706;27;20180;-65
2021/05/31 06:00:34;;;;;;;11.75;5.60;;;15.00;99.90;;;;;;5133314;27;20628;-65
2021/05/31 06:03:00;;;;;;;9.18;5.82;;;14.90;99.90;;;;;;5133477;27;20571;-65
2021/05/31 06:05:26;;;;;;;17.77;5.93;;;14.90;99.90;;;;;;5133574;27;20175;-65
2021/05/31 06:07:52;;;;;;;6.63;4.80;;;15.00;99.90;;;;;;5133513;27;20190;-65
2021/05/31 06:10:18;;;;;;;8.68;4.82;;;15.00;99.90;;;;;;5138293;27;20184;-65
2021/05/31 06:12:44;;;;;;;9.50;5.10;;;15.10;99.90;;;;;;5140002;27;20206;-65
2021/05/31 06:15:11;;;;;;;10.93;4.78;;;15.10;99.90;;;;;;5116622;27;20627;-65
2021/05/31 06:17:37;;;;;;;8.63;4.35;;;15.20;99.90;;;;;;5134245;27;20184;-66
2021/05/31 06:20:04;;;;;;;8.18;4.65;;;15.30;99.90;;;;;;5133297;27;20561;-66
2021/05/31 06:22:38;;;;;;;7.72;4.35;;;15.40;99.90;;;;;;5132265;27;20203;-65
2021/05/31 06:25:06;;;;;;;79.43;6.60;;;15.50;99.90;;;;;;5116230;27;20604;-66
2021/05/31 06:27:32;;;;;;;9.23;4.72;;;15.50;99.90;;;;;;5131195;27;20624;-65
2021/05/31 06:29:58;;;;;;;5.75;3.58;;;15.60;99.90;;;;;;5133342;27;20171;-65
2021/05/31 06:32:24;;;;;;;7.07;4.07;;;15.60;99.90;;;;;;5137082;27;20532;-65
2021/05/31 06:34:50;;;;;;;10.18;4.13;;;15.50;99.90;;;;;;5138305;27;20211;-65
2021/05/31 06:37:16;;;;;;;7.25;3.60;;;15.50;99.90;;;;;;5113858;27;20570;-65
2021/05/31 06:39:42;;;;;;;5.72;3.67;;;15.40;99.90;;;;;;5132636;27;20683;-64
2021/05/31 06:42:09;;;;;;;6.68;3.63;;;15.50;99.90;;;;;;5132096;27;20208;-65
2021/05/31 06:44:35;;;;;;;6.30;3.65;;;15.60;99.90;;;;;;5112537;27;20183;-65
2021/05/31 06:47:01;;;;;;;5.43;3.17;;;15.70;99.90;;;;;;5128483;27;20556;-65
2021/05/31 06:49:27;;;;;;;5.60;3.45;;;15.80;99.70;;;;;;5127507;27;20163;-66
2021/05/31 06:51:53;;;;;;;4.78;3.55;;;15.90;98.10;;;;;;5138332;27;20184;-65
2021/05/31 06:54:19;;;;;;;5.10;3.20;;;16.00;99.40;;;;;;5138140;27;20186;-64
2021/05/31 06:56:45;;;;;;;5.32;3.40;;;16.10;99.40;;;;;;5140489;27;20195;-65
2021/05/31 06:59:13;;;;;;;6.32;3.42;;;16.30;99.40;;;;;;5138787;27;20172;-65
2021/05/31 07:01:39;;;;;;;6.47;3.20;;;16.40;99.50;;;;;;5139194;27;20273;-65
2021/05/31 07:04:05;;;;;;;88.20;7.68;;;16.40;98.60;;;;;;5128810;27;20180;-65
2021/05/31 07:06:32;;;;;;;10.15;3.80;;;16.50;98.10;;;;;;5126597;28;20179;-65
2021/05/31 07:08:58;;;;;;;9.20;3.38;;;16.60;98.00;;;;;;5111781;28;20199;-66
2021/05/31 07:11:24;;;;;;;35.67;5.00;;;16.70;96.60;;;;;;5131958;28;20192;-64
2021/05/31 07:13:51;;;;;;;17.55;3.78;;;16.80;96.40;;;;;;5132408;28;20172;-65
2021/05/31 07:16:17;;;;;;;4.90;3.30;;;16.80;96.70;;;;;;5128154;28;20557;-64
2021/05/31 07:18:43;;;;;;;112.13;7.82;;;16.90;96.10;;;;;;5132576;28;20176;-65
2021/05/31 07:21:10;;;;;;;7.50;3.50;;;17.00;96.50;;;;;;5132563;28;20522;-65
2021/05/31 07:23:37;;;;;;;5.72;3.20;;;17.10;95.80;;;;;;5114276;28;20195;-65
2021/05/31 07:26:04;;;;;;;6.35;3.38;;;17.10;95.80;;;;;;5131993;28;20258;-65
2021/05/31 07:28:31;;;;;;;7.38;3.35;;;17.30;97.20;;;;;;5097134;28;20176;-65
2021/05/31 07:30:57;;;;;;;7.85;3.72;;;17.40;96.30;;;;;;5132103;28;20225;-66
2021/05/31 07:33:23;;;;;;;7.57;3.28;;;17.70;97.60;;;;;;5132556;28;20179;-66
2021/05/31 07:35:49;;;;;;;7.50;3.75;;;17.90;96.10;;;;;;5131902;28;20219;-66
2021/05/31 07:38:15;;;;;;;5.50;3.30;;;18.00;95.80;;;;;;5131861;28;20196;-66
2021/05/31 07:40:41;;;;;;;8.40;3.75;;;18.30;97.10;;;;;;5095527;28;20192;-65
2021/05/31 07:43:08;;;;;;;8.70;3.35;;;18.30;94.20;;;;;;5131978;28;20214;-65
2021/05/31 07:45:34;;;;;;;7.80;3.80;;;18.40;94.30;;;;;;5132393;28;20176;-64
2021/05/31 07:48:00;;;;;;;11.80;4.13;;;18.50;95.30;;;;;;5131534;28;20188;-65
2021/05/31 07:50:26;;;;;;;19.85;4.30;;;18.60;95.70;;;;;;5132554;28;20531;-65
2021/05/31 07:52:52;;;;;;;6.80;3.40;;;18.60;94.80;;;;;;5132812;28;20176;-65
2021/05/31 07:55:18;;;;;;;10.52;3.95;;;18.60;94.80;;;;;;5132597;28;20184;-65
2021/05/31 07:57:45;;;;;;;5.65;3.42;;;18.60;95.00;;;;;;5131764;28;20640;-66
2021/05/31 08:00:13;;;;;;;6.28;3.35;;;18.70;95.10;;;;;;5131749;28;20180;-65
2021/05/31 08:02:42;;;;;;;5.28;3.22;;;18.90;95.60;;;;;;5115352;28;20230;-66
2021/05/31 08:05:10;;;;;;;6.85;3.58;;;19.20;94.90;;;;;;5131944;28;20191;-66
2021/05/31 08:07:36;;;;;;;6.05;3.50;;;19.50;94.20;;;;;;5132492;28;20176;-65
2021/05/31 08:10:03;;;;;;;7.22;3.60;;;19.40;93.30;;;;;;5131168;28;20180;-65
2021/05/31 08:12:29;;;;;;;9.73;3.85;;;19.60;94.60;;;;;;5130992;27;20202;-66
2021/05/31 08:14:55;;;;;;;7.63;4.05;;;19.80;94.50;;;;;;5127545;27;20184;-66
2021/05/31 08:17:21;;;;;;;8.70;3.97;;;19.70;93.10;;;;;;5116598;27;20183;-66
2021/05/31 08:19:47;;;;;;;10.70;4.03;;;19.90;93.10;;;;;;5116022;27;20180;-66
2021/05/31 08:22:13;;;;;;;5.28;3.30;;;20.20;93.90;;;;;;5134939;27;20204;-64
2021/05/31 08:24:39;;;;;;;5.30;3.13;;;20.40;93.60;;;;;;5135672;27;20176;-65
2021/05/31 08:27:06;;;;;;;6.75;3.13;;;20.60;91.60;;;;;;5135057;27;20187;-66
2021/05/31 08:29:32;;;;;;;14.10;3.45;;;20.90;86.10;;;;;;5134282;27;20192;-65
2021/05/31 08:31:58;;;;;;;4.45;2.67;;;21.00;86.20;;;;;;5126268;27;20184;-65
2021/05/31 08:34:25;;;;;;;4.10;2.53;;;21.30;76.90;;;;;;5132677;27;20722;-65
2021/05/31 08:36:51;;;;;;;5.35;2.42;;;21.70;78.30;;;;;;5134207;27;20172;-65
2021/05/31 08:39:17;;;;;;;4.45;2.60;;;22.10;76.20;;;;;;5135625;27;20172;-65
2021/05/31 08:41:44;;;;;;;5.53;2.72;;;22.30;73.20;;;;;;5134977;27;20527;-65
2021/05/31 08:44:10;;;;;;;6.80;2.13;;;22.50;72.80;;;;;;5134876;27;20554;-64
2021/05/31 08:46:36;;;;;;;5.55;2.60;;;22.80;75.30;;;;;;5134869;27;20655;-65
2021/05/31 08:49:03;;;;;;;5.53;2.30;;;23.30;74.10;;;;;;5134699;27;20199;-64
2021/05/31 08:51:29;;;;;;;4.78;2.05;;;23.40;68.80;;;;;;5134125;27;20180;-64
2021/05/31 08:53:56;;;;;;;3.28;1.98;;;23.50;65.50;;;;;;5134975;27;20176;-64
2021/05/31 08:56:22;;;;;;;4.30;2.15;;;23.70;62.60;;;;;;5134925;27;20215;-64
2021/05/31 08:58:48;;;;;;;3.80;1.92;;;23.70;66.20;;;;;;5134808;27;20183;-63
2021/05/31 09:01:15;;;;;;;3.80;1.88;;;24.20;65.40;;;;;;5115487;27;20172;-66
2021/05/31 09:03:42;;;;;;;2.50;1.70;;;24.00;58.20;;;;;;5134614;27;20678;-65
2021/05/31 09:06:11;;;;;;;165.93;7.82;;;24.00;60.80;;;;;;5078522;27;20640;-64
2021/05/31 09:08:38;;;;;;;6.65;2.10;;;24.20;60.90;;;;;;5137944;27;20628;-65
2021/05/31 09:11:06;;;;;;;4.70;1.80;;;24.70;65.90;;;;;;5138719;27;20182;-67
2021/05/31 09:13:43;;;;;;;4.72;1.70;;;24.80;61.00;;;;;;5144386;27;20195;-64
2021/05/31 09:16:15;;;;;;;2.75;1.80;;;24.80;56.40;;;;;;5141777;27;20170;-65
2021/05/31 09:18:59;;;;;;;16.60;2.50;;;24.20;57.00;;;;;;5138237;27;20164;-65
2021/05/31 09:21:30;;;;;;;2.95;1.80;;;24.00;59.50;;;;;;5134688;27;20508;-65
2021/05/31 09:24:14;;;;;;;4.93;2.20;;;23.70;56.70;;;;;;5134048;27;20189;-65
2021/05/31 09:26:46;;;;;;;3.15;1.70;;;23.80;58.00;;;;;;5134937;27;20160;-65
2021/05/31 09:29:12;;;;;;;9.90;2.53;;;23.50;58.70;;;;;;5135082;27;20164;-65
2021/05/31 09:31:38;;;;;;;7.10;2.05;;;22.90;58.10;;;;;;5135056;27;20635;-65
2021/05/31 09:34:09;;;;;;;6.25;2.17;;;23.10;59.20;;;;;;5133955;27;20227;-60
2021/05/31 09:36:50;;;;;;;3.13;2.10;;;22.90;58.10;;;;;;5140044;27;20155;-60
2021/05/31 09:39:16;;;;;;;4.45;2.75;;;22.30;63.50;;;;;;5145928;27;20159;-59
2021/05/31 09:41:42;;;;;;;4.75;2.50;;;22.90;63.20;;;;;;5135211;27;20179;-59
2021/05/31 09:44:09;;;;;;;5.15;2.58;;;23.30;66.50;;;;;;5133332;27;20671;-58
2021/05/31 09:46:45;;;;;;;3.50;2.40;;;23.50;65.40;;;;;;5133860;27;20187;-59
2021/05/31 09:49:15;;;;;;;7.55;3.08;;;23.80;65.90;;;;;;5139605;27;20179;-58
2021/05/31 09:51:54;;;;;;;6.72;3.10;;;23.80;67.50;;;;;;5133848;27;20539;-60
2021/05/31 09:54:36;;;;;;;8.68;3.03;;;23.60;65.90;;;;;;5135514;27;20163;-59
2021/05/31 09:57:22;;;;;;;3.67;2.65;;;23.30;67.40;;;;;;5140428;27;20662;-59
2021/05/31 09:59:54;;;;;;;4.03;2.95;;;23.00;68.20;;;;;;5141803;27;20187;-58
2021/05/31 10:07:56;;;;;;;4.53;3.70;;;22.30;68.80;;;;;;5134811;27;21718;-59
2021/05/31 10:10:22;;;;;;;5.65;3.83;;;21.90;71.10;;;;;;5134508;27;20186;-58
2021/05/31 10:12:48;;;;;;;10.20;3.97;;;22.10;73.00;;;;;;5138161;27;20202;-60
2021/05/31 10:15:17;;;;;;;8.07;3.83;;;22.30;71.70;;;;;;5122126;27;20163;-59
2021/05/31 10:17:43;;;;;;;4.75;3.80;;;22.20;74.40;;;;;;5137764;27;20538;-60
2021/05/31 10:20:10;;;;;;;9.27;3.47;;;22.50;73.70;;;;;;5115050;27;20180;-59
2021/05/31 10:22:36;;;;;;;5.97;3.70;;;22.90;71.60;;;;;;5132848;27;20590;-59
2021/05/31 10:25:05;;;;;;;5.95;3.80;;;23.30;73.20;;;;;;5131514;27;20164;-58
2021/05/31 10:27:31;;;;;;;3.92;3.13;;;23.40;70.30;;;;;;5131683;27;20187;-59
2021/05/31 10:30:00;;;;;;;5.35;3.67;;;23.10;66.10;;;;;;5095888;27;20168;-58
2021/05/31 10:32:26;;;;;;;5.95;4.20;;;22.90;70.90;;;;;;5113065;27;20167;-59
2021/05/31 10:34:53;;;;;;;7.88;4.28;;;23.10;71.20;;;;;;5130707;27;20238;-59
2021/05/31 10:37:28;;;;;;;6.53;3.92;;;23.10;71.00;;;;;;5109823;27;20195;-59
2021/05/31 10:39:58;;;;;;;9.55;4.75;;;22.80;71.60;;;;;;5126959;27;20163;-59
2021/05/31 10:42:24;;;;;;;6.25;4.63;;;22.60;73.30;;;;;;5131925;27;20207;-59
2021/05/31 10:44:50;;;;;;;6.55;4.10;;;23.00;71.70;;;;;;5113393;27;20184;-60
2021/05/31 10:47:25;;;;;;;7.97;4.57;;;23.00;69.10;;;;;;5132204;27;20183;-59
2021/05/31 10:49:55;;;;;;;5.95;4.38;;;22.80;72.00;;;;;;5114881;27;20164;-59
2021/05/31 10:52:21;;;;;;;6.32;4.72;;;23.50;71.00;;;;;;5132664;27;20176;-59
2021/05/31 10:54:47;;;;;;;5.60;4.90;;;23.70;69.10;;;;;;5132448;27;20536;-59
2021/05/31 10:57:13;;;;;;;16.30;5.18;;;23.60;71.40;;;;;;5133059;27;20187;-59
2021/05/31 10:59:49;;;;;;;11.05;4.90;;;23.30;70.10;;;;;;5131786;28;20186;-59
2021/05/31 11:02:23;;;;;;;9.38;5.30;;;23.20;70.20;;;;;;5132810;28;20659;-60
2021/05/31 11:04:49;;;;;;;10.98;5.28;;;22.50;67.20;;;;;;5132555;28;20176;-60
2021/05/31 11:07:27;;;;;;;10.85;5.90;;;22.60;70.20;;;;;;5113881;28;20500;-59
2021/05/31 11:09:54;;;;;;;12.95;7.68;;;22.30;72.80;;;;;;5131908;28;20523;-58
2021/05/31 11:12:30;;;;;;;17.20;7.05;;;22.10;72.60;;;;;;5113920;28;20172;-58
2021/05/31 11:15:11;;;;;;;57.90;10.13;;;22.20;71.90;;;;;;5132294;28;20616;-58
2021/05/31 11:17:57;;;;;;;17.15;8.00;;;21.70;75.70;;;;;;5128724;28;20168;-59
2021/05/31 11:20:24;;;;;;;16.00;7.90;;;21.70;71.80;;;;;;5128836;28;20666;-59
2021/05/31 11:22:58;;;;;;;15.60;8.02;;;21.40;72.90;;;;;;5097059;28;20210;-59
2021/05/31 11:25:25;;;;;;;16.88;7.90;;;21.50;75.10;;;;;;5131135;28;20674;-59
2021/05/31 11:27:56;;;;;;;16.50;7.55;;;21.50;71.90;;;;;;5132058;28;20180;-58
2021/05/31 11:30:25;;;;;;;19.02;7.15;;;21.30;73.20;;;;;;5131091;28;20495;-59
2021/05/31 11:32:52;;;;;;;13.23;6.90;;;21.10;73.40;;;;;;5130626;28;20176;-59
2021/05/31 11:35:18;;;;;;;15.93;7.82;;;21.60;76.70;;;;;;5130181;28;20600;-59
2021/05/31 11:37:45;;;;;;;20.13;7.22;;;21.10;71.70;;;;;;5129836;28;20191;-60
2021/05/31 11:40:36;;;;;;;15.40;7.00;;;21.00;70.10;;;;;;5111530;28;20720;-60
2021/05/31 11:43:03;;;;;;;16.42;7.13;;;21.20;72.20;;;;;;5130418;28;20200;-58
2021/05/31 11:45:33;;;;;;;12.63;6.78;;;21.20;74.60;;;;;;5130648;28;20195;-59
2021/05/31 11:48:08;;;;;;;16.75;6.63;;;21.40;74.10;;;;;;5134824;27;20175;-58
2021/05/31 11:50:35;;;;;;;16.20;6.95;;;21.50;76.50;;;;;;5135676;27;20522;-59
2021/05/31 11:53:03;;;;;;;20.27;6.88;;;21.10;73.90;;;;;;5135634;27;20183;-59
2021/05/31 11:55:29;;;;;;;20.50;6.60;;;21.20;75.80;;;;;;5135019;27;20218;-59
2021/05/31 11:57:56;;;;;;;11.90;6.75;;;21.00;72.40;;;;;;5117566;27;20691;-59
2021/05/31 12:00:26;;;;;;;15.50;6.65;;;20.90;77.10;;;;;;5135052;27;20292;-59
2021/05/31 12:02:52;;;;;;;11.65;6.65;;;21.10;76.10;;;;;;5135449;27;20219;-59
2021/05/31 12:05:36;;;;;;;15.52;7.00;;;21.40;75.10;;;;;;5120859;27;20191;-58
2021/05/31 12:08:07;;;;;;;14.52;6.35;;;21.40;77.10;;;;;;5128771;27;20198;-58
2021/05/31 12:10:33;;;;;;;35.00;7.90;;;21.10;75.90;;;;;;5132506;27;20568;-59
2021/05/31 12:12:59;;;;;;;22.65;7.82;;;20.60;76.80;;;;;;5134208;27;20184;-59
2021/05/31 12:15:25;;;;;;;19.40;7.82;;;20.20;78.20;;;;;;5133270;27;20187;-59
2021/05/31 12:17:53;;;;;;;19.63;8.07;;;19.50;79.60;;;;;;5117470;27;20652;-58
2021/05/31 12:20:26;;;;;;;60.35;10.80;;;19.70;82.60;;;;;;5135734;27;20175;-59
2021/05/31 12:22:52;;;;;;;22.05;8.52;;;19.50;84.90;;;;;;5137603;27;20211;-58
2021/05/31 12:25:18;;;;;;;18.10;8.85;;;19.60;85.00;;;;;;5078795;27;20725;-59
2021/05/31 12:27:44;;;;;;;18.00;9.38;;;19.30;85.70;;;;;;5134533;27;20263;-59
2021/05/31 12:30:13;;;;;;;24.52;9.88;;;19.10;88.20;;;;;;5135505;27;20188;-59
2021/05/31 12:32:39;;;;;;;17.00;9.95;;;18.90;90.30;;;;;;5135473;27;20172;-60
2021/05/31 12:35:06;;;;;;;23.95;10.90;;;18.80;91.20;;;;;;5134521;27;20220;-59
2021/05/31 12:37:33;;;;;;;22.17;9.73;;;18.40;90.60;;;;;;5125944;27;20706;-59
2021/05/31 12:40:07;;;;;;;22.75;10.27;;;18.50;91.70;;;;;;5117189;27;20552;-59
2021/05/31 12:42:33;;;;;;;28.58;10.05;;;18.30;91.40;;;;;;5141963;27;20156;-58
2021/05/31 12:45:00;;;;;;;27.77;10.45;;;18.50;92.50;;;;;;5137721;27;20187;-59
2021/05/31 12:47:35;;;;;;;28.27;9.63;;;18.60;91.80;;;;;;5145816;27;20163;-62
2021/05/31 12:50:02;;;;;;;23.85;10.38;;;18.80;91.40;;;;;;5135530;27;20628;-59
2021/05/31 12:52:30;;;;;;;19.75;10.05;;;18.50;90.60;;;;;;5145056;27;20199;-60
2021/05/31 12:55:08;;;;;;;28.92;11.02;;;18.10;92.00;;;;;;5144179;27;20261;-59
2021/05/31 12:57:39;;;;;;;28.20;11.23;;;18.00;93.00;;;;;;5143568;27;20156;-60
2021/05/31 13:00:16;;;;;;;20.92;10.75;;;18.00;93.30;;;;;;5141525;27;20152;-60
2021/05/31 13:02:54;;;;;;;21.63;10.20;;;18.00;93.60;;;;;;5143297;27;20222;-59
2021/05/31 13:05:21;;;;;;;25.13;10.98;;;18.10;93.80;;;;;;5143537;27;20172;-59
2021/05/31 13:07:49;;;;;;;26.77;10.63;;;17.90;94.00;;;;;;5141696;27;20685;-59